Carius, Brazil
Current Conditions -  °F | °C
As of 4:00 PM on Monday 22 Dec 2014 (Local Time) from SBJU Reporting Station
Scattered Clouds Scattered Clouds  
Wind Chill: 97°   Ceiling: Unl
Heat Index: 100°   Visibility: 6mi
Dew Point: 66°   Wind: 9mph
Humidity: 37%   Direction: 90°E
Pressure: 29.88"   Gusts: NA
Location:  6.54°S, 39.5°W
Report Text: SBJU 221900Z 09008KT 9999 SCT022 36/19 Q1012
Loading
Personal Weather Stations






























Interactive Weather Map New forecast layout! Learn more

10-Day Weather Forecast

Advertisements
Track Severe Weather on mobile